Time;durP1;ratioP1;P1;durP2;ratioP2;P2;SDS_P1;SDS_P2;PMS_P1;PMS_P2;Temp;Humidity;BMP_temperature;BMP_pressure;BME280_temperature;BME280_humidity;BME280_pressure;Samples;Min_cycle;Max_cycle;Signal;HPM_P1;HPM_P2
2022/09/17 00:00:09;;;;;;;14.63;1.98;;;11.70;99.90;;;;;;5061908;28;20123;-74
2022/09/17 00:02:34;;;;;;;;;;;11.70;99.90;;;;;;5074189;28;20596;-74
2022/09/17 00:05:00;;;;;;;11.32;1.83;;;11.80;99.90;;;;;;5105788;28;19916;-74
2022/09/17 00:07:27;;;;;;;12.75;2.10;;;11.80;99.90;;;;;;5088660;28;20032;-74
2022/09/17 00:09:52;;;;;;;15.40;2.08;;;11.90;99.90;;;;;;5078129;28;20062;-74
2022/09/17 00:12:18;;;;;;;11.83;1.80;;;11.90;99.90;;;;;;5084746;28;20036;-74
2022/09/17 00:14:44;;;;;;;13.68;1.73;;;11.90;99.90;;;;;;5062182;28;20068;-74
2022/09/17 00:17:09;;;;;;;9.90;1.53;;;11.90;99.90;;;;;;5083404;28;20046;-74
2022/09/17 00:19:35;;;;;;;10.38;1.70;;;11.90;99.90;;;;;;5066022;28;20106;-74
2022/09/17 00:22:00;;;;;;;8.70;1.80;;;11.90;99.90;;;;;;5079756;28;20512;-74
2022/09/17 00:24:26;;;;;;;7.33;1.77;;;12.00;99.90;;;;;;5075898;28;20823;-74
2022/09/17 00:26:52;;;;;;;10.60;1.70;;;12.00;99.90;;;;;;5080726;28;20282;-74
2022/09/17 00:29:18;;;;;;;11.13;2.05;;;12.10;99.90;;;;;;5058735;28;20279;-74
2022/09/17 00:31:43;;;;;;;8.10;1.42;;;12.10;99.90;;;;;;5076487;28;20062;-74
2022/09/17 00:34:11;;;;;;;6.53;1.10;;;11.90;99.90;;;;;;5077340;28;20034;-74
2022/09/17 00:36:38;;;;;;;7.15;1.23;;;11.90;99.90;;;;;;5065510;28;20043;-74
2022/09/17 00:39:05;;;;;;;12.48;1.98;;;11.80;99.90;;;;;;5077050;28;20083;-74
2022/09/17 00:41:33;;;;;;;11.98;1.98;;;11.80;99.90;;;;;;5077161;28;20082;-74
2022/09/17 00:44:01;;;;;;;12.13;1.67;;;11.80;99.90;;;;;;5082684;28;20043;-74
2022/09/17 00:46:33;;;;;;;10.15;1.50;;;11.70;99.90;;;;;;5082880;28;20040;-74
2022/09/17 00:49:03;;;;;;;10.80;1.45;;;11.70;99.90;;;;;;5088507;28;20115;-74
2022/09/17 00:51:56;;;;;;;9.85;2.05;;;11.60;99.90;;;;;;5080150;28;20049;-74
2022/09/17 00:54:23;;;;;;;12.13;1.98;;;11.60;99.90;;;;;;5080503;28;20071;-74
2022/09/17 00:56:50;;;;;;;10.60;1.75;;;11.60;99.90;;;;;;5081949;28;20111;-74
2022/09/17 00:59:18;;;;;;;11.18;1.90;;;11.60;99.90;;;;;;5080481;28;20074;-74
2022/09/17 01:01:44;;;;;;;9.23;1.50;;;11.60;99.90;;;;;;5082498;28;20051;-74
2022/09/17 01:04:24;;;;;;;17.27;2.33;;;11.50;99.90;;;;;;5079844;28;20409;-74
2022/09/17 01:07:06;;;;;;;12.20;1.73;;;11.50;99.90;;;;;;5079372;28;20040;-74
2022/09/17 01:09:41;;;;;;;15.38;2.25;;;11.40;99.90;;;;;;5079641;28;20044;-74
2022/09/17 01:12:13;;;;;;;17.95;2.15;;;11.30;99.90;;;;;;5077304;28;20390;-74
2022/09/17 01:14:50;;;;;;;10.88;1.33;;;11.40;99.90;;;;;;5082951;28;20073;-74
2022/09/17 01:17:33;;;;;;;10.73;1.88;;;11.10;99.90;;;;;;5075132;28;20033;-74
2022/09/17 01:20:17;;;;;;;9.90;1.75;;;11.00;99.90;;;;;;5063381;28;20452;-73
2022/09/17 01:23:12;;;;;;;13.55;1.45;;;10.90;99.90;;;;;;5078646;28;20072;-73
2022/09/17 01:26:23;;;;;;;14.20;1.83;;;10.80;99.90;;;;;;5043402;28;20054;-73
2022/09/17 01:29:04;;;;;;;12.07;1.70;;;10.80;99.90;;;;;;5064144;28;20034;-73
2022/09/17 01:31:39;;;;;;;18.10;1.73;;;10.80;99.90;;;;;;5078622;28;20046;-73
2022/09/17 01:34:38;;;;;;;12.25;1.75;;;10.70;99.90;;;;;;5061613;28;20118;-73
2022/09/17 01:37:13;;;;;;;16.67;3.10;;;10.70;99.90;;;;;;5059709;28;20071;-73
2022/09/17 01:39:56;;;;;;;9.20;1.70;;;10.70;99.90;;;;;;5056313;28;20474;-73
2022/09/17 01:42:50;;;;;;;9.45;1.85;;;10.60;99.90;;;;;;5065902;28;20113;-73
2022/09/17 01:45:21;;;;;;;10.68;1.65;;;10.50;99.90;;;;;;5076960;28;20101;-73
2022/09/17 01:47:55;;;;;;;11.48;1.45;;;10.50;99.90;;;;;;5063719;28;20517;-74
2022/09/17 01:50:32;;;;;;;9.50;1.48;;;10.50;99.90;;;;;;5069669;28;20491;-73
2022/09/17 01:52:59;;;;;;;17.13;1.75;;;10.40;99.90;;;;;;5071321;28;20059;-73
2022/09/17 01:55:31;;;;;;;15.27;2.08;;;10.40;99.90;;;;;;5063279;28;20100;-73
2022/09/17 01:58:38;;;;;;;11.73;1.13;;;10.60;99.90;;;;;;5048844;28;20719;-73
2022/09/17 02:01:07;;;;;;;12.57;1.60;;;10.40;99.90;;;;;;5072523;28;20046;-73
2022/09/17 02:03:48;;;;;;;14.23;1.63;;;10.40;99.90;;;;;;5074209;28;20042;-74
2022/09/17 02:06:19;;;;;;;13.02;1.70;;;10.40;99.90;;;;;;5077312;28;20109;-73
2022/09/17 02:08:51;;;;;;;9.30;1.42;;;10.40;99.90;;;;;;5072378;28;20042;-73
2022/09/17 02:11:18;;;;;;;6.90;1.98;;;10.50;99.90;;;;;;5079057;28;20051;-73
2022/09/17 02:13:46;;;;;;;;;;;10.70;99.90;;;;;;5070083;28;20034;-72
2022/09/17 02:16:25;;;;;;;9.13;1.45;;;10.60;99.90;;;;;;5079872;28;19917;-73
2022/09/17 02:18:57;;;;;;;10.77;1.63;;;10.70;99.90;;;;;;5070694;28;20047;-73
2022/09/17 02:21:50;;;;;;;18.98;2.15;;;10.70;99.90;;;;;;5065954;28;20121;-73
2022/09/17 02:24:43;;;;;;;15.30;1.50;;;10.70;99.90;;;;;;5076357;28;20045;-73
2022/09/17 02:27:45;;;;;;;9.85;1.50;;;10.70;99.90;;;;;;5076857;28;20509;-74
2022/09/17 02:30:12;;;;;;;13.80;2.75;;;10.60;99.90;;;;;;5071444;28;20048;-74
2022/09/17 02:32:37;;;;;;;8.65;1.30;;;10.70;99.90;;;;;;5075754;28;20405;-74
2022/09/17 02:35:05;;;;;;;11.68;1.60;;;10.80;99.90;;;;;;5081230;28;20185;-74
2022/09/17 02:37:31;;;;;;;7.90;1.00;;;10.80;99.90;;;;;;5081877;28;20055;-74
2022/09/17 02:39:57;;;;;;;9.15;1.58;;;10.90;99.90;;;;;;5080871;28;20029;-74
2022/09/17 02:43:07;;;;;;;10.18;1.63;;;10.90;99.90;;;;;;5080175;28;20464;-74
2022/09/17 02:46:06;;;;;;;10.93;1.83;;;10.90;99.90;;;;;;5015140;28;20428;-74
2022/09/17 02:49:07;;;;;;;7.95;1.77;;;10.90;99.90;;;;;;5076172;28;20113;-74
2022/09/17 02:51:44;;;;;;;11.60;1.60;;;10.80;99.90;;;;;;5079659;28;20135;-73
2022/09/17 02:54:26;;;;;;;14.85;2.00;;;10.80;99.90;;;;;;5069128;28;20071;-73
2022/09/17 02:56:55;;;;;;;6.82;1.17;;;10.80;99.90;;;;;;5079764;28;20044;-73
2022/09/17 02:59:48;;;;;;;10.07;1.98;;;10.80;99.90;;;;;;5084709;28;20040;-73
2022/09/17 03:02:29;;;;;;;9.82;1.67;;;10.70;99.90;;;;;;5084014;28;20039;-73
2022/09/17 03:04:55;;;;;;;7.72;1.50;;;10.70;99.90;;;;;;5084744;28;20044;-73
2022/09/17 03:07:21;;;;;;;13.35;1.73;;;10.70;99.90;;;;;;5082747;28;20070;-73
2022/09/17 03:09:47;;;;;;;;;;;10.60;99.90;;;;;;5085366;28;20066;-73
2022/09/17 03:12:14;;;;;;;9.95;1.30;;;10.60;99.90;;;;;;5086866;28;19916;-73
2022/09/17 03:14:39;;;;;;;;;;;10.50;99.90;;;;;;5082844;28;20082;-74
2022/09/17 03:17:05;;;;;;;13.45;1.50;;;10.40;99.90;;;;;;5074684;28;19916;-72
2022/09/17 03:19:31;;;;;;;6.90;1.20;;;10.40;99.90;;;;;;5083210;28;20098;-73
2022/09/17 03:21:57;;;;;;;13.60;1.67;;;10.30;99.90;;;;;;5064067;28;20513;-74
2022/09/17 03:24:23;;;;;;;7.13;1.48;;;10.30;99.90;;;;;;5056237;28;20050;-73
2022/09/17 03:26:49;;;;;;;11.90;1.70;;;10.10;99.90;;;;;;5019251;28;20042;-74
2022/09/17 03:29:15;;;;;;;11.40;1.10;;;10.20;99.90;;;;;;5029624;28;20076;-73
2022/09/17 03:31:41;;;;;;;11.13;1.60;;;10.10;99.90;;;;;;4999093;28;20460;-74
2022/09/17 03:34:07;;;;;;;14.20;1.85;;;10.10;99.90;;;;;;5010045;28;20081;-74
2022/09/17 03:36:33;;;;;;;10.87;1.37;;;10.20;99.90;;;;;;5015011;28;20128;-74
2022/09/17 03:38:59;;;;;;;9.57;1.58;;;10.20;99.90;;;;;;5018780;28;20052;-74
2022/09/17 03:41:25;;;;;;;8.93;1.80;;;10.30;99.90;;;;;;5029428;28;20387;-74
2022/09/17 03:43:51;;;;;;;7.47;1.63;;;10.40;99.90;;;;;;5069631;28;20048;-73
2022/09/17 03:46:17;;;;;;;8.88;1.35;;;10.30;99.90;;;;;;5031004;28;20050;-74
2022/09/17 03:48:43;;;;;;;10.07;1.45;;;10.40;99.90;;;;;;5035709;28;20045;-74
2022/09/17 03:51:09;;;;;;;16.40;1.80;;;10.50;99.90;;;;;;5011742;28;20187;-74
2022/09/17 03:53:34;;;;;;;14.63;1.70;;;10.50;99.90;;;;;;5019229;28;20112;-74
2022/09/17 03:56:02;;;;;;;7.30;1.33;;;10.50;99.90;;;;;;5009837;28;20388;-74
2022/09/17 03:58:29;;;;;;;13.65;1.25;;;10.50;99.90;;;;;;5034431;28;20354;-74
2022/09/17 04:00:56;;;;;;;8.25;1.98;;;10.50;99.90;;;;;;5060765;28;20044;-73
2022/09/17 04:03:27;;;;;;;12.55;2.17;;;10.40;99.90;;;;;;5030375;28;20082;-73
2022/09/17 04:05:53;;;;;;;10.77;1.20;;;10.20;99.90;;;;;;5030858;28;20179;-73
2022/09/17 04:08:19;;;;;;;9.70;1.38;;;10.20;99.90;;;;;;5022842;28;20126;-74
2022/09/17 04:10:45;;;;;;;7.45;1.35;;;10.20;99.90;;;;;;5038910;28;20054;-74
2022/09/17 04:13:12;;;;;;;9.90;1.60;;;10.00;99.90;;;;;;5021677;28;20034;-74
2022/09/17 04:15:38;;;;;;;7.32;1.55;;;9.90;99.90;;;;;;5030687;28;20120;-73
2022/09/17 04:18:04;;;;;;;4.30;0.98;;;9.80;99.90;;;;;;5014844;28;20123;-73
2022/09/17 04:20:30;;;;;;;8.65;1.15;;;9.70;99.90;;;;;;5030562;28;20053;-73
2022/09/17 04:22:56;;;;;;;12.50;1.37;;;9.70;99.90;;;;;;5028410;28;20120;-73
2022/09/17 04:25:22;;;;;;;11.65;1.85;;;9.60;99.90;;;;;;5071854;28;20054;-73
2022/09/17 04:27:48;;;;;;;7.68;1.30;;;9.80;99.90;;;;;;5064832;28;20528;-74
2022/09/17 04:30:14;;;;;;;10.30;1.47;;;9.50;99.90;;;;;;5075138;28;20124;-73
2022/09/17 04:32:41;;;;;;;12.55;1.88;;;9.40;99.90;;;;;;5071632;28;20277;-73
2022/09/17 04:35:07;;;;;;;14.98;2.72;;;9.30;99.90;;;;;;5053992;28;20065;-74
2022/09/17 04:37:33;;;;;;;10.70;1.70;;;9.40;99.90;;;;;;5066868;28;20076;-74
2022/09/17 04:39:58;;;;;;;11.03;1.50;;;9.40;99.90;;;;;;5066872;28;20128;-74
2022/09/17 04:42:24;;;;;;;9.40;1.47;;;9.40;99.90;;;;;;5070942;28;20036;-74
2022/09/17 04:44:50;;;;;;;11.63;1.57;;;9.30;99.90;;;;;;5068187;28;20034;-74
2022/09/17 04:47:16;;;;;;;11.23;1.50;;;9.30;99.90;;;;;;5070816;28;20367;-73
2022/09/17 04:49:41;;;;;;;9.43;1.40;;;9.30;99.90;;;;;;5064192;28;20478;-73
2022/09/17 04:52:07;;;;;;;8.97;1.23;;;9.30;99.90;;;;;;5076319;28;20048;-73
2022/09/17 04:54:32;;;;;;;13.17;1.50;;;9.30;99.90;;;;;;5069342;28;20045;-73
2022/09/17 04:56:59;;;;;;;8.63;1.40;;;9.30;99.90;;;;;;5061848;28;20042;-74
2022/09/17 04:59:25;;;;;;;;;;;9.30;99.90;;;;;;5075798;28;20034;-74
2022/09/17 05:01:50;;;;;;;9.00;1.35;;;9.30;99.90;;;;;;5066318;28;19926;-74
2022/09/17 05:04:16;;;;;;;11.47;1.70;;;9.30;99.90;;;;;;5066179;28;20042;-74
2022/09/17 05:06:42;;;;;;;10.48;1.50;;;9.30;99.90;;;;;;5079508;28;20044;-74
2022/09/17 05:09:07;;;;;;;12.40;1.50;;;9.20;99.90;;;;;;5078664;28;20541;-74
2022/09/17 05:11:33;;;;;;;8.70;1.37;;;9.10;99.90;;;;;;5059411;28;20034;-74
2022/09/17 05:13:59;;;;;;;8.87;1.60;;;9.10;99.90;;;;;;5055548;28;20304;-74
2022/09/17 05:16:24;;;;;;;15.90;1.57;;;9.10;99.90;;;;;;5072199;28;20296;-74
2022/09/17 05:18:50;;;;;;;6.07;1.70;;;9.10;99.90;;;;;;5072129;28;20463;-74
2022/09/17 05:21:17;;;;;;;10.63;1.47;;;9.10;99.90;;;;;;5082178;28;20121;-74
2022/09/17 05:23:43;;;;;;;7.68;1.55;;;9.10;99.90;;;;;;5060775;28;20062;-75
2022/09/17 05:26:08;;;;;;;13.17;1.97;;;9.20;99.90;;;;;;5047384;28;20046;-72
2022/09/17 05:28:34;;;;;;;10.77;1.83;;;9.20;99.90;;;;;;5056151;28;20821;-73
2022/09/17 05:31:01;;;;;;;11.45;1.95;;;9.30;99.90;;;;;;5048846;28;20392;-73
2022/09/17 05:33:27;;;;;;;14.10;1.80;;;9.40;99.90;;;;;;5068674;28;20075;-73
2022/09/17 05:35:53;;;;;;;13.27;1.77;;;9.60;99.90;;;;;;5074157;28;20048;-73
2022/09/17 05:38:19;;;;;;;10.15;1.75;;;9.70;99.90;;;;;;5067646;28;20038;-73
2022/09/17 05:40:45;;;;;;;9.70;1.92;;;9.90;99.90;;;;;;5068353;28;20125;-72
2022/09/17 05:43:11;;;;;;;9.88;1.55;;;10.00;99.90;;;;;;5031949;28;20551;-73
2022/09/17 05:45:37;;;;;;;8.77;1.58;;;10.20;99.90;;;;;;5057037;28;20038;-73
2022/09/17 05:48:05;;;;;;;10.45;1.35;;;10.40;99.90;;;;;;5065891;28;20047;-73
2022/09/17 05:50:32;;;;;;;7.72;1.27;;;10.40;99.90;;;;;;5068151;28;20112;-73
2022/09/17 05:53:10;;;;;;;9.35;1.38;;;10.50;99.90;;;;;;5067050;28;20049;-73
2022/09/17 05:55:36;;;;;;;6.32;1.08;;;10.50;99.90;;;;;;5063809;28;20032;-73
2022/09/17 05:58:10;;;;;;;5.80;1.05;;;10.50;99.90;;;;;;5076223;28;20503;-73
2022/09/17 06:00:36;;;;;;;5.45;0.70;;;10.40;99.90;;;;;;5035644;28;20042;-73
2022/09/17 06:03:01;;;;;;;4.65;0.70;;;10.30;99.90;;;;;;5069144;28;20041;-73
2022/09/17 06:05:27;;;;;;;3.10;0.60;;;10.30;99.90;;;;;;5065235;28;20110;-73
2022/09/17 06:07:53;;;;;;;5.57;0.83;;;10.30;99.90;;;;;;5067872;28;20053;-73
2022/09/17 06:10:18;;;;;;;5.00;1.00;;;10.20;99.90;;;;;;5051457;28;21070;-74
2022/09/17 06:12:44;;;;;;;5.47;0.97;;;10.30;99.90;;;;;;5074227;28;20042;-74
2022/09/17 06:15:13;;;;;;;7.60;1.30;;;10.40;99.90;;;;;;5050944;28;20091;-74
2022/09/17 06:17:39;;;;;;;7.43;1.30;;;10.30;99.90;;;;;;5084585;28;20507;-73
2022/09/17 06:20:05;;;;;;;7.05;1.10;;;10.30;99.90;;;;;;5069915;28;20042;-73
2022/09/17 06:22:32;;;;;;;6.97;1.25;;;10.30;99.90;;;;;;5052688;28;20463;-74
2022/09/17 06:24:58;;;;;;;5.72;1.10;;;10.20;99.90;;;;;;5074158;28;20131;-72
2022/09/17 06:27:32;;;;;;;7.05;1.10;;;10.20;99.90;;;;;;5066489;28;20049;-72
2022/09/17 06:29:58;;;;;;;10.25;1.10;;;10.20;99.90;;;;;;5069178;28;20116;-72
2022/09/17 06:32:24;;;;;;;5.35;1.10;;;10.10;99.90;;;;;;5049793;28;20228;-73
2022/09/17 06:34:49;;;;;;;5.70;0.90;;;10.10;99.90;;;;;;5078732;28;20121;-72
2022/09/17 06:37:15;;;;;;;7.63;1.20;;;10.10;99.90;;;;;;5073745;28;20312;-73
2022/09/17 06:39:41;;;;;;;7.32;1.23;;;10.30;99.90;;;;;;5068187;28;20441;-72
2022/09/17 06:42:07;;;;;;;4.03;0.60;;;10.50;99.90;;;;;;5070664;28;20069;-73
2022/09/17 06:44:32;;;;;;;6.00;0.70;;;10.80;99.90;;;;;;5064614;28;20641;-74
2022/09/17 06:46:58;;;;;;;6.73;0.90;;;10.80;99.90;;;;;;5070916;28;20845;-75
2022/09/17 06:49:23;;;;;;;9.23;0.90;;;10.90;99.90;;;;;;5086148;28;20117;-75
2022/09/17 06:51:49;;;;;;;4.77;0.90;;;10.90;99.90;;;;;;5047153;28;20081;-75
2022/09/17 06:54:15;;;;;;;2.97;0.83;;;10.90;99.90;;;;;;5064967;28;20293;-75
2022/09/17 06:56:40;;;;;;;4.97;0.80;;;10.80;99.90;;;;;;5068471;28;20045;-74
2022/09/17 06:59:06;;;;;;;5.20;1.00;;;10.80;99.90;;;;;;5083230;28;20032;-75
2022/09/17 07:01:32;;;;;;;6.43;1.10;;;10.90;99.90;;;;;;5073257;28;20317;-74
2022/09/17 07:03:57;;;;;;;8.17;1.00;;;11.20;99.90;;;;;;5071926;28;20042;-74
2022/09/17 07:06:23;;;;;;;7.45;0.95;;;11.30;99.90;;;;;;5054447;28;20482;-74
2022/09/17 07:08:49;;;;;;;9.27;1.33;;;11.60;99.90;;;;;;5066429;28;20117;-75
2022/09/17 07:11:15;;;;;;;7.78;1.42;;;11.90;99.90;;;;;;5072921;28;20047;-75
2022/09/17 07:13:41;;;;;;;11.65;1.48;;;12.40;99.90;;;;;;5041115;28;20032;-75
2022/09/17 07:16:06;;;;;;;8.88;1.60;;;13.10;99.90;;;;;;5073669;28;20045;-76
2022/09/17 07:18:32;;;;;;;8.52;1.10;;;13.80;99.90;;;;;;5073171;28;20040;-74
2022/09/17 07:21:00;;;;;;;4.85;0.90;;;14.30;99.90;;;;;;5058565;28;20045;-75
2022/09/17 07:23:28;;;;;;;9.95;1.33;;;14.40;99.90;;;;;;5072014;28;20186;-75
2022/09/17 07:25:56;;;;;;;6.53;1.10;;;14.20;99.90;;;;;;5088499;28;21700;-75
2022/09/17 07:28:25;;;;;;;8.05;1.35;;;13.70;99.90;;;;;;5074298;28;20045;-75
2022/09/17 07:30:51;;;;;;;10.57;1.85;;;13.20;99.90;;;;;;5077826;28;20156;-75
2022/09/17 07:33:22;;;;;;;;;;;13.00;99.90;;;;;;5080667;28;20038;-74
2022/09/17 07:36:06;;;;;;;9.10;1.30;;;13.30;99.90;;;;;;5071591;28;20406;-74
2022/09/17 07:38:34;;;;;;;7.85;1.33;;;14.10;99.90;;;;;;5068425;28;20387;-74
2022/09/17 07:41:01;;;;;;;7.95;1.25;;;14.10;99.90;;;;;;5081094;28;20124;-74
2022/09/17 07:43:30;;;;;;;3.85;0.85;;;14.10;99.90;;;;;;5068114;28;20387;-74
2022/09/17 07:45:57;;;;;;;7.43;0.90;;;14.20;99.90;;;;;;5053027;28;20045;-76
2022/09/17 07:48:24;;;;;;;6.25;0.75;;;14.70;99.90;;;;;;5071755;28;20049;-74
2022/09/17 07:50:50;;;;;;;5.18;0.70;;;15.40;99.90;;;;;;5073292;28;20056;-74
2022/09/17 07:53:17;;;;;;;6.50;1.02;;;16.20;99.90;;;;;;5069324;28;20388;-74
2022/09/17 07:55:54;;;;;;;7.72;1.45;;;16.60;99.90;;;;;;5065334;28;20035;-75
2022/09/17 07:58:26;;;;;;;;;;;17.10;99.90;;;;;;5072627;28;20069;-76
2022/09/17 08:00:52;;;;;;;7.70;1.40;;;17.30;99.90;;;;;;5051897;28;20282;-75
2022/09/17 08:03:18;;;;;;;12.87;2.10;;;16.80;99.90;;;;;;5053829;28;20042;-76
2022/09/17 08:05:43;;;;;;;9.63;1.27;;;16.10;99.90;;;;;;5065089;28;20288;-75
2022/09/17 08:08:09;;;;;;;5.97;1.23;;;15.60;99.90;;;;;;5069488;28;20084;-74
2022/09/17 08:10:34;;;;;;;6.78;1.23;;;14.80;99.90;;;;;;5066189;28;20038;-73
2022/09/17 08:13:00;;;;;;;6.05;1.20;;;14.50;99.90;;;;;;5035990;28;20147;-76
2022/09/17 08:15:26;;;;;;;6.40;1.30;;;13.80;99.90;;;;;;5069717;28;20050;-78
2022/09/17 08:17:52;;;;;;;6.30;1.08;;;13.40;99.90;;;;;;5082021;28;20307;-77
2022/09/17 08:20:18;;;;;;;5.88;0.75;;;13.40;99.90;;;;;;5060963;28;20049;-77
2022/09/17 08:22:43;;;;;;;6.68;1.35;;;13.70;99.90;;;;;;5055064;28;20045;-76
2022/09/17 08:25:10;;;;;;;8.40;1.30;;;13.60;99.90;;;;;;5047814;28;20054;-77
2022/09/17 08:27:39;;;;;;;6.30;1.20;;;13.40;99.90;;;;;;5061956;28;20046;-77
2022/09/17 08:30:06;;;;;;;5.35;1.10;;;13.20;99.90;;;;;;5066916;28;20033;-77
2022/09/17 08:32:32;;;;;;;7.05;1.35;;;13.40;99.90;;;;;;5076754;28;20148;-77
2022/09/17 08:34:57;;;;;;;6.47;1.10;;;14.20;99.90;;;;;;5073744;28;20115;-75
2022/09/17 08:37:23;;;;;;;4.95;0.90;;;15.30;99.90;;;;;;5078787;28;20292;-75
2022/09/17 08:39:49;;;;;;;8.93;1.27;;;16.10;99.90;;;;;;5084808;28;20047;-74
2022/09/17 08:42:36;;;;;;;5.13;1.20;;;16.30;99.90;;;;;;5054258;28;20091;-74
2022/09/17 08:45:09;;;;;;;5.18;1.23;;;16.30;99.90;;;;;;5064628;28;20046;-75
2022/09/17 08:47:40;;;;;;;6.60;1.20;;;17.00;99.90;;;;;;5069967;28;20046;-75
2022/09/17 08:50:13;;;;;;;7.10;1.17;;;17.60;99.90;;;;;;5060298;28;20055;-74
2022/09/17 08:53:02;;;;;;;5.40;1.20;;;18.00;99.90;;;;;;5051688;28;20120;-74
2022/09/17 08:55:39;;;;;;;8.55;1.30;;;17.40;99.90;;;;;;5078678;28;20073;-74
2022/09/17 08:58:05;;;;;;;9.73;1.60;;;16.50;99.90;;;;;;5062587;28;20042;-74
2022/09/17 09:01:17;;;;;;;10.67;1.40;;;15.60;99.90;;;;;;5068605;28;20052;-74
2022/09/17 09:03:49;;;;;;;5.47;1.10;;;15.00;99.90;;;;;;5056052;28;20295;-75
2022/09/17 09:06:16;;;;;;;7.43;1.20;;;14.70;99.90;;;;;;5053619;28;20129;-74
2022/09/17 09:08:46;;;;;;;6.78;0.85;;;14.50;99.90;;;;;;5075641;28;20045;-73
2022/09/17 09:11:20;;;;;;;6.18;1.40;;;14.80;99.90;;;;;;5069518;28;20050;-73
2022/09/17 09:13:50;;;;;;;6.20;1.15;;;15.30;99.90;;;;;;5062020;28;20068;-74
2022/09/17 09:16:29;;;;;;;7.20;1.27;;;15.60;99.90;;;;;;5070494;28;20030;-74
2022/09/17 09:19:03;;;;;;;6.78;1.27;;;15.50;99.90;;;;;;5071492;28;20061;-74
2022/09/17 09:21:42;;;;;;;8.38;1.20;;;15.00;99.90;;;;;;5068428;28;20054;-74
2022/09/17 09:24:21;;;;;;;6.35;1.20;;;14.70;99.90;;;;;;5051616;28;20073;-73
2022/09/17 09:26:53;;;;;;;5.82;1.00;;;14.20;99.90;;;;;;5026565;28;20500;-74
2022/09/17 09:29:43;;;;;;;5.38;1.05;;;14.50;99.90;;;;;;5039835;28;20481;-74
2022/09/17 09:32:36;;;;;;;5.00;1.25;;;15.50;99.90;;;;;;4999305;28;20046;-74
2022/09/17 09:35:14;;;;;;;6.80;1.25;;;16.70;99.90;;;;;;5019216;28;20051;-74
2022/09/17 09:37:42;;;;;;;7.15;1.20;;;16.80;99.90;;;;;;5016742;28;20424;-73
2022/09/17 09:40:23;;;;;;;4.90;0.98;;;16.10;99.90;;;;;;5003550;28;20038;-73
2022/09/17 09:42:54;;;;;;;6.35;0.85;;;15.40;99.90;;;;;;5030016;28;20049;-72
2022/09/17 09:45:47;;;;;;;6.28;0.85;;;14.80;99.90;;;;;;5039059;28;20467;-73
2022/09/17 09:48:42;;;;;;;3.20;0.63;;;14.50;99.90;;;;;;5015183;28;20044;-74
2022/09/17 09:51:31;;;;;;;4.72;0.70;;;14.60;99.90;;;;;;5012690;28;20057;-73
2022/09/17 09:54:12;;;;;;;4.25;0.88;;;14.90;99.90;;;;;;5019277;28;20042;-73
2022/09/17 09:56:47;;;;;;;6.65;0.95;;;15.90;99.90;;;;;;4980656;28;20125;-74
2022/09/17 09:59:13;;;;;;;6.55;0.90;;;16.80;99.90;;;;;;5029708;28;20095;-73
2022/09/17 10:01:41;;;;;;;6.50;1.17;;;17.20;99.90;;;;;;5012534;28;20074;-73
2022/09/17 10:04:33;;;;;;;4.15;0.98;;;17.80;99.90;;;;;;4993405;28;20511;-74
2022/09/17 10:07:08;;;;;;;8.20;1.15;;;18.70;99.90;;;;;;4991250;28;20083;-74
2022/09/17 10:09:36;;;;;;;6.32;0.98;;;19.10;99.90;;;;;;5038845;28;20040;-74
2022/09/17 10:12:02;;;;;;;8.27;1.15;;;19.80;99.90;;;;;;5030131;28;20070;-74
2022/09/17 10:14:30;;;;;;;9.32;1.05;;;20.00;99.90;;;;;;5038536;28;20032;-74
2022/09/17 10:17:14;;;;;;;4.60;0.90;;;19.70;99.90;;;;;;5033333;28;20068;-75
2022/09/17 10:19:41;;;;;;;11.88;1.77;;;18.90;99.90;;;;;;5013927;28;20545;-74
2022/09/17 10:22:34;;;;;;;9.10;1.50;;;18.20;99.90;;;;;;5028805;28;20044;-74
2022/09/17 10:25:02;;;;;;;7.72;1.30;;;17.10;99.90;;;;;;5036765;28;20060;-75
2022/09/17 10:27:29;;;;;;;5.25;1.20;;;16.30;99.90;;;;;;5081903;28;20055;-75
2022/09/17 10:30:07;;;;;;;9.02;2.08;;;15.90;99.90;;;;;;5082641;28;20431;-75
2022/09/17 10:32:32;;;;;;;7.57;1.33;;;15.40;99.90;;;;;;5074172;28;20036;-73
2022/09/17 10:35:13;;;;;;;7.28;1.10;;;15.10;99.90;;;;;;5077852;28;20094;-74
2022/09/17 10:37:44;;;;;;;8.73;1.25;;;15.00;99.90;;;;;;5073494;28;20093;-75
2022/09/17 10:40:27;;;;;;;7.40;1.38;;;15.10;99.90;;;;;;5071900;28;20051;-74
2022/09/17 10:43:15;;;;;;;7.55;1.70;;;15.50;99.90;;;;;;5066590;28;20032;-75
2022/09/17 10:45:44;;;;;;;4.93;1.17;;;15.50;99.90;;;;;;5075111;28;20047;-81
2022/09/17 10:48:19;;;;;;;8.35;1.40;;;15.40;99.90;;;;;;5074333;28;20474;-77
2022/09/17 10:51:05;;;;;;;8.80;1.50;;;15.30;99.90;;;;;;5078126;28;20036;-78
2022/09/17 10:53:58;;;;;;;9.27;1.30;;;15.30;99.90;;;;;;5074055;28;20032;-74
2022/09/17 10:56:35;;;;;;;8.90;1.50;;;15.20;99.90;;;;;;5035595;28;20048;-74
2022/09/17 10:59:17;;;;;;;11.55;1.70;;;15.20;99.90;;;;;;5073041;28;20064;-74
2022/09/17 11:02:07;;;;;;;8.27;1.67;;;15.10;99.90;;;;;;5068787;28;20055;-74
2022/09/17 11:04:48;;;;;;;8.10;1.35;;;15.30;99.90;;;;;;5080991;28;20044;-74
2022/09/17 11:07:46;;;;;;;11.70;1.63;;;16.30;99.90;;;;;;5066526;28;20048;-74
2022/09/17 11:10:21;;;;;;;;;;;17.40;99.90;;;;;;5082145;28;20089;-75
2022/09/17 11:13:08;;;;;;;8.98;1.50;;;18.60;99.90;;;;;;5102700;28;19916;-74
2022/09/17 11:16:21;;;;;;;12.20;1.67;;;19.50;99.90;;;;;;5079960;28;20043;-75
2022/09/17 11:19:01;;;;;;;10.65;1.52;;;19.50;99.90;;;;;;4975491;28;20045;-74
2022/09/17 11:21:39;;;;;;;9.15;1.70;;;18.50;99.90;;;;;;4992880;28;20050;-74
2022/09/17 11:24:35;;;;;;;8.05;1.63;;;17.60;99.90;;;;;;5066482;28;20048;-74
2022/09/17 11:27:36;;;;;;;7.97;1.52;;;17.40;99.90;;;;;;5077880;28;20044;-74
2022/09/17 11:30:13;;;;;;;8.48;1.25;;;17.20;99.90;;;;;;5077791;28;20041;-74
2022/09/17 11:32:45;;;;;;;;;;;17.20;99.90;;;;;;5073823;28;20032;-77
2022/09/17 11:35:32;;;;;;;6.03;1.02;;;16.90;99.90;;;;;;5074698;28;20344;-77
2022/09/17 11:38:12;;;;;;;9.95;1.48;;;16.70;99.90;;;;;;5079204;28;20119;-78
2022/09/17 11:41:05;;;;;;;8.27;1.30;;;17.10;99.90;;;;;;5081555;28;20040;-75
2022/09/17 11:43:34;;;;;;;5.82;1.23;;;17.80;99.90;;;;;;5073244;28;20090;-77
2022/09/17 11:46:24;;;;;;;5.38;1.15;;;18.40;99.90;;;;;;5083506;28;20052;-77
2022/09/17 11:49:03;;;;;;;8.45;1.45;;;19.10;98.50;;;;;;5077502;28;20044;-77
2022/09/17 11:51:31;;;;;;;6.75;1.40;;;19.60;98.30;;;;;;5080483;28;20437;-76
2022/09/17 11:54:38;;;;;;;12.60;1.50;;;19.50;97.30;;;;;;5061527;28;20036;-78
2022/09/17 11:57:18;;;;;;;8.23;1.88;;;19.20;97.70;;;;;;5077199;28;20040;-77
2022/09/17 11:59:44;;;;;;;7.40;1.50;;;18.60;99.00;;;;;;5063271;28;20044;-78
2022/09/17 12:02:20;;;;;;;6.75;1.52;;;18.30;99.90;;;;;;5078782;28;20366;-78
2022/09/17 12:05:02;;;;;;;8.00;1.25;;;17.80;99.90;;;;;;5074011;28;20047;-78
2022/09/17 12:07:35;;;;;;;8.30;1.45;;;18.20;99.90;;;;;;5058077;28;20032;-78
2022/09/17 12:10:35;;;;;;;6.70;1.15;;;18.70;99.30;;;;;;5080281;28;20129;-78
2022/09/17 12:13:31;;;;;;;9.18;1.50;;;19.40;98.60;;;;;;5055439;28;20058;-78
2022/09/17 12:16:23;;;;;;;9.35;1.20;;;19.80;97.50;;;;;;5076891;28;20040;-78
2022/09/17 12:19:08;;;;;;;6.57;1.15;;;20.40;97.20;;;;;;5076442;28;20396;-77
2022/09/17 12:21:36;;;;;;;8.00;1.02;;;20.40;96.40;;;;;;5080002;28;20086;-78
2022/09/17 12:24:23;;;;;;;6.10;1.27;;;20.40;96.80;;;;;;5051578;28;20057;-77
2022/09/17 12:27:12;;;;;;;9.93;1.48;;;20.60;97.00;;;;;;5022088;28;20049;-78
2022/09/17 12:29:53;;;;;;;11.32;1.45;;;20.30;96.40;;;;;;5023204;28;20038;-77
2022/09/17 12:32:37;;;;;;;7.80;1.35;;;19.80;96.50;;;;;;5023115;28;20051;-77
2022/09/17 12:35:30;;;;;;;10.40;1.20;;;19.80;96.80;;;;;;5001467;28;20493;-77
2022/09/17 12:38:06;;;;;;;7.05;1.85;;;20.30;95.80;;;;;;5028189;28;20107;-78
2022/09/17 12:40:54;;;;;;;8.07;1.60;;;20.60;95.70;;;;;;5031448;28;20046;-78
2022/09/17 12:43:41;;;;;;;6.55;1.33;;;20.70;95.50;;;;;;5003391;28;20050;-78
2022/09/17 12:46:13;;;;;;;;;;;20.70;95.20;;;;;;5017981;28;20041;-77
2022/09/17 12:48:50;;;;;;;7.75;1.48;;;20.90;95.20;;;;;;5023873;28;19942;-78
2022/09/17 12:51:39;;;;;;;7.68;1.35;;;21.20;95.70;;;;;;5023688;28;20057;-78
2022/09/17 12:54:08;;;;;;;11.85;1.65;;;21.40;95.50;;;;;;5016059;28;20084;-77
2022/09/17 12:57:05;;;;;;;7.72;1.52;;;20.10;95.80;;;;;;5033661;28;20386;-77
2022/09/17 12:59:34;;;;;;;6.60;1.40;;;19.10;96.10;;;;;;5008346;28;20047;-77
2022/09/17 13:02:18;;;;;;;9.23;1.10;;;19.00;96.90;;;;;;5037204;28;20065;-77
2022/09/17 13:05:12;;;;;;;8.50;1.70;;;19.70;97.20;;;;;;5034091;28;20046;-77
2022/09/17 13:07:58;;;;;;;10.10;2.13;;;20.20;96.40;;;;;;5020737;28;20054;-77
2022/09/17 13:10:27;;;;;;;8.52;1.30;;;20.40;95.30;;;;;;5040213;28;20048;-77
2022/09/17 13:12:53;;;;;;;9.70;1.38;;;20.00;95.30;;;;;;5003418;28;20046;-78
2022/09/17 13:15:37;;;;;;;7.90;1.52;;;19.60;95.50;;;;;;5004513;28;20034;-78
2022/09/17 13:18:12;;;;;;;7.50;1.58;;;19.30;96.40;;;;;;5027355;28;20051;-78